sensor_id;sensor_type;location;lat;lon;timestamp;pressure;altitude;pressure_sealevel;temperature;humidity
10482;BME280;5288;42.334;23.876;2023-07-30T00:02:21;55986.22;;;-140.56;70.83
10482;BME280;5288;42.334;23.876;2023-07-30T00:04:48;55964.47;;;-140.56;70.11
10482;BME280;5288;42.334;23.876;2023-07-30T00:07:15;55942.72;;;-140.56;69.09
10482;BME280;5288;42.334;23.876;2023-07-30T00:09:42;55940.75;;;-140.56;67.33
10482;BME280;5288;42.334;23.876;2023-07-30T00:12:11;55958.53;;;-140.56;67.22
10482;BME280;5288;42.334;23.876;2023-07-30T00:14:38;55950.63;;;-140.56;67.33
10482;BME280;5288;42.334;23.876;2023-07-30T00:17:05;55938.78;;;-140.56;66.63
10482;BME280;5288;42.334;23.876;2023-07-30T00:19:31;55928.91;;;-140.56;66.77
10482;BME280;5288;42.334;23.876;2023-07-30T00:21:58;55936.81;;;-140.56;66.80
10482;BME280;5288;42.334;23.876;2023-07-30T00:24:25;55954.59;;;-140.56;69.33
10482;BME280;5288;42.334;23.876;2023-07-30T00:26:52;55988.19;;;-140.56;68.03
10482;BME280;5288;42.334;23.876;2023-07-30T00:29:20;55954.59;;;-140.56;68.18
10482;BME280;5288;42.334;23.876;2023-07-30T00:31:47;55954.59;;;-140.56;68.98
10482;BME280;5288;42.334;23.876;2023-07-30T00:34:14;55913.09;;;-140.56;68.68
10482;BME280;5288;42.334;23.876;2023-07-30T00:36:41;55954.59;;;-140.56;67.74
10482;BME280;5288;42.334;23.876;2023-07-30T00:39:08;55946.69;;;-140.56;63.71
10482;BME280;5288;42.334;23.876;2023-07-30T00:41:36;55956.56;;;-140.56;64.44
10482;BME280;5288;42.334;23.876;2023-07-30T00:44:04;55940.75;;;-140.56;65.34
10482;BME280;5288;42.334;23.876;2023-07-30T00:46:32;55934.81;;;-140.56;66.22
10482;BME280;5288;42.334;23.876;2023-07-30T00:49:00;55946.69;;;-140.56;67.82
10482;BME280;5288;42.334;23.876;2023-07-30T00:51:27;55901.22;;;-140.56;70.28
10482;BME280;5288;42.334;23.876;2023-07-30T00:53:56;55976.31;;;-140.56;71.83
10482;BME280;5288;42.334;23.876;2023-07-30T00:56:23;55954.59;;;-140.56;71.96
10482;BME280;5288;42.334;23.876;2023-07-30T00:58:50;55970.41;;;-140.56;71.96
10482;BME280;5288;42.334;23.876;2023-07-30T01:01:19;55942.72;;;-140.56;71.16
10482;BME280;5288;42.334;23.876;2023-07-30T01:03:47;55974.34;;;-140.56;71.93
10482;BME280;5288;42.334;23.876;2023-07-30T01:06:15;55966.44;;;-140.56;71.73
10482;BME280;5288;42.334;23.876;2023-07-30T01:08:42;55978.31;;;-140.56;70.11
10482;BME280;5288;42.334;23.876;2023-07-30T01:11:10;55942.72;;;-140.56;72.62
10482;BME280;5288;42.334;23.876;2023-07-30T01:13:37;56000.03;;;-140.56;71.76
10482;BME280;5288;42.334;23.876;2023-07-30T01:16:05;55996.09;;;-140.56;70.35
10482;BME280;5288;42.334;23.876;2023-07-30T01:18:33;55948.66;;;-140.56;68.46
10482;BME280;5288;42.334;23.876;2023-07-30T01:21:01;55950.63;;;-140.56;67.81
10482;BME280;5288;42.334;23.876;2023-07-30T01:23:28;55936.81;;;-140.56;68.86
10482;BME280;5288;42.334;23.876;2023-07-30T01:26:01;55950.63;;;-140.56;69.13
10482;BME280;5288;42.334;23.876;2023-07-30T01:28:34;55924.94;;;-140.56;67.88
10482;BME280;5288;42.334;23.876;2023-07-30T01:31:03;55909.13;;;-140.56;65.80
10482;BME280;5288;42.334;23.876;2023-07-30T01:33:32;55903.22;;;-140.56;64.98
10482;BME280;5288;42.334;23.876;2023-07-30T01:36:00;55919.03;;;-140.56;64.88
10482;BME280;5288;42.334;23.876;2023-07-30T01:38:28;55907.16;;;-140.56;65.13
10482;BME280;5288;42.334;23.876;2023-07-30T01:40:56;55944.72;;;-140.56;66.29
10482;BME280;5288;42.334;23.876;2023-07-30T01:43:23;55915.06;;;-140.56;67.41
10482;BME280;5288;42.334;23.876;2023-07-30T01:45:50;55922.97;;;-140.56;65.77
10482;BME280;5288;42.334;23.876;2023-07-30T01:48:17;55922.97;;;-140.56;67.05
10482;BME280;5288;42.334;23.876;2023-07-30T01:50:44;55924.94;;;-140.56;65.33
10482;BME280;5288;42.334;23.876;2023-07-30T01:53:14;55932.84;;;-140.56;63.28
10482;BME280;5288;42.334;23.876;2023-07-30T01:55:41;55913.09;;;-140.56;63.79
10482;BME280;5288;42.334;23.876;2023-07-30T01:58:11;55930.88;;;-140.56;65.36
10482;BME280;5288;42.334;23.876;2023-07-30T02:00:38;55926.94;;;-140.56;65.19
10482;BME280;5288;42.334;23.876;2023-07-30T02:03:05;55928.91;;;-140.56;64.57
10482;BME280;5288;42.334;23.876;2023-07-30T02:05:33;55940.75;;;-140.56;64.59
10482;BME280;5288;42.334;23.876;2023-07-30T02:08:00;55974.34;;;-140.56;67.21
10482;BME280;5288;42.334;23.876;2023-07-30T02:10:28;55934.81;;;-140.56;67.00
10482;BME280;5288;42.334;23.876;2023-07-30T02:57:24;55968.41;;;-140.56;69.65
10482;BME280;5288;42.334;23.876;2023-07-30T02:59:51;55970.41;;;-140.56;71.47
10482;BME280;5288;42.334;23.876;2023-07-30T03:02:18;55976.31;;;-140.56;70.83
10482;BME280;5288;42.334;23.876;2023-07-30T03:04:45;55966.44;;;-140.56;69.95
10482;BME280;5288;42.334;23.876;2023-07-30T03:07:12;56002.00;;;-140.56;71.90
10482;BME280;5288;42.334;23.876;2023-07-30T03:09:39;55966.44;;;-140.56;70.82
10482;BME280;5288;42.334;23.876;2023-07-30T03:12:07;55946.69;;;-140.56;70.69
10482;BME280;5288;42.334;23.876;2023-07-30T03:14:35;55932.84;;;-140.56;70.73
10482;BME280;5288;42.334;23.876;2023-07-30T03:17:02;55968.41;;;-140.56;70.88
10482;BME280;5288;42.334;23.876;2023-07-30T03:19:30;55944.72;;;-140.56;69.13
10482;BME280;5288;42.334;23.876;2023-07-30T03:21:57;55942.72;;;-140.56;69.21
10482;BME280;5288;42.334;23.876;2023-07-30T03:24:24;55932.84;;;-140.56;66.04
10482;BME280;5288;42.334;23.876;2023-07-30T03:26:51;55934.81;;;-140.56;67.48
10482;BME280;5288;42.334;23.876;2023-07-30T03:29:18;55956.56;;;-140.56;67.56
10482;BME280;5288;42.334;23.876;2023-07-30T03:31:46;55950.63;;;-140.56;65.61
10482;BME280;5288;42.334;23.876;2023-07-30T03:34:13;55926.94;;;-140.56;69.16
10482;BME280;5288;42.334;23.876;2023-07-30T03:36:40;55974.34;;;-140.56;67.59
10482;BME280;5288;42.334;23.876;2023-07-30T03:39:07;55956.56;;;-140.56;68.50
10482;BME280;5288;42.334;23.876;2023-07-30T03:41:34;55956.56;;;-140.56;66.42
10482;BME280;5288;42.334;23.876;2023-07-30T03:44:01;55922.97;;;-140.56;66.96
10482;BME280;5288;42.334;23.876;2023-07-30T03:46:28;55966.44;;;-140.56;66.77
10482;BME280;5288;42.334;23.876;2023-07-30T03:48:56;55944.72;;;-140.56;66.09
10482;BME280;5288;42.334;23.876;2023-07-30T03:51:23;55972.38;;;-140.56;68.60
10482;BME280;5288;42.334;23.876;2023-07-30T03:53:50;55919.03;;;-140.56;66.13
10482;BME280;5288;42.334;23.876;2023-07-30T03:56:17;55964.47;;;-140.56;65.95
10482;BME280;5288;42.334;23.876;2023-07-30T03:58:44;55960.53;;;-140.56;67.11
10482;BME280;5288;42.334;23.876;2023-07-30T04:01:11;55944.72;;;-140.56;70.29
10482;BME280;5288;42.334;23.876;2023-07-30T04:03:38;55926.94;;;-140.56;69.70
10482;BME280;5288;42.334;23.876;2023-07-30T04:06:06;55952.63;;;-140.56;68.98
10482;BME280;5288;42.334;23.876;2023-07-30T04:08:33;55930.88;;;-140.56;67.43
10482;BME280;5288;42.334;23.876;2023-07-30T04:11:00;55958.53;;;-140.56;65.72
10482;BME280;5288;42.334;23.876;2023-07-30T04:13:27;55917.03;;;-140.56;65.12
10482;BME280;5288;42.334;23.876;2023-07-30T04:15:54;55954.59;;;-140.56;67.57
10482;BME280;5288;42.334;23.876;2023-07-30T04:18:21;55936.81;;;-140.56;68.25
10482;BME280;5288;42.334;23.876;2023-07-30T04:20:48;55932.84;;;-140.56;66.87
10482;BME280;5288;42.334;23.876;2023-07-30T04:23:16;55938.78;;;-140.56;68.07
10482;BME280;5288;42.334;23.876;2023-07-30T04:25:43;55938.78;;;-140.56;67.59
10482;BME280;5288;42.334;23.876;2023-07-30T04:28:10;55960.53;;;-140.56;66.62
10482;BME280;5288;42.334;23.876;2023-07-30T04:30:37;55964.47;;;-140.56;68.10
10482;BME280;5288;42.334;23.876;2023-07-30T04:33:04;55972.38;;;-140.56;68.42
10482;BME280;5288;42.334;23.876;2023-07-30T04:35:31;55958.53;;;-140.56;67.98
10482;BME280;5288;42.334;23.876;2023-07-30T04:37:58;55942.72;;;-140.56;68.98
10482;BME280;5288;42.334;23.876;2023-07-30T04:40:26;55950.63;;;-140.56;69.61
10482;BME280;5288;42.334;23.876;2023-07-30T04:42:53;55970.41;;;-140.56;67.85
10482;BME280;5288;42.334;23.876;2023-07-30T04:45:20;55990.16;;;-140.56;68.43
10482;BME280;5288;42.334;23.876;2023-07-30T04:47:47;55980.28;;;-140.56;69.48
10482;BME280;5288;42.334;23.876;2023-07-30T04:50:14;55956.56;;;-140.56;70.90
10482;BME280;5288;42.334;23.876;2023-07-30T04:52:41;55968.41;;;-140.56;70.00
10482;BME280;5288;42.334;23.876;2023-07-30T04:55:08;55938.78;;;-140.56;71.00
10482;BME280;5288;42.334;23.876;2023-07-30T04:57:36;55948.66;;;-140.56;70.28
10482;BME280;5288;42.334;23.876;2023-07-30T05:00:04;55972.38;;;-140.56;69.57
10482;BME280;5288;42.334;23.876;2023-07-30T05:02:32;55954.59;;;-140.56;69.48
10482;BME280;5288;42.334;23.876;2023-07-30T05:04:59;55956.56;;;-140.56;69.97
10482;BME280;5288;42.334;23.876;2023-07-30T05:07:26;55930.88;;;-140.56;69.28
10482;BME280;5288;42.334;23.876;2023-07-30T05:09:53;55942.72;;;-140.56;69.23
10482;BME280;5288;42.334;23.876;2023-07-30T05:12:20;55907.16;;;-140.56;69.13
10482;BME280;5288;42.334;23.876;2023-07-30T05:14:48;55942.72;;;-140.56;69.65
10482;BME280;5288;42.334;23.876;2023-07-30T05:17:15;55968.41;;;-140.56;69.89
10482;BME280;5288;42.334;23.876;2023-07-30T05:19:42;55948.66;;;-140.56;70.41
10482;BME280;5288;42.334;23.876;2023-07-30T05:22:09;55930.88;;;-140.56;69.02
10482;BME280;5288;42.334;23.876;2023-07-30T05:24:36;55940.75;;;-140.56;68.45
10482;BME280;5288;42.334;23.876;2023-07-30T05:27:04;55934.81;;;-140.56;67.32
10482;BME280;5288;42.334;23.876;2023-07-30T05:29:31;55946.69;;;-140.56;66.80
10482;BME280;5288;42.334;23.876;2023-07-30T05:31:59;55901.22;;;-140.56;67.03
10482;BME280;5288;42.334;23.876;2023-07-30T05:34:26;55909.13;;;-140.56;65.42
10482;BME280;5288;42.334;23.876;2023-07-30T05:36:53;55907.16;;;-140.56;63.71
10482;BME280;5288;42.334;23.876;2023-07-30T05:39:20;55928.91;;;-140.56;63.90
10482;BME280;5288;42.334;23.876;2023-07-30T05:41:47;55907.16;;;-140.56;63.24
10482;BME280;5288;42.334;23.876;2023-07-30T05:44:13;55921.00;;;-140.56;61.87
10482;BME280;5288;42.334;23.876;2023-07-30T05:46:40;55899.25;;;-140.56;62.08
10482;BME280;5288;42.334;23.876;2023-07-30T05:49:09;55883.44;;;-140.56;62.46
10482;BME280;5288;42.334;23.876;2023-07-30T05:51:36;55887.41;;;-140.56;60.84
10482;BME280;5288;42.334;23.876;2023-07-30T05:54:03;55897.28;;;-140.56;60.58
10482;BME280;5288;42.334;23.876;2023-07-30T05:56:30;55883.44;;;-140.56;58.83
10482;BME280;5288;42.334;23.876;2023-07-30T05:58:57;55877.53;;;-140.56;59.57
10482;BME280;5288;42.334;23.876;2023-07-30T06:01:24;55851.84;;;-140.56;58.23
10482;BME280;5288;42.334;23.876;2023-07-30T06:03:51;55869.63;;;-140.56;55.02
10482;BME280;5288;42.334;23.876;2023-07-30T06:06:20;55861.72;;;-140.56;54.37
10482;BME280;5288;42.334;23.876;2023-07-30T06:08:52;55881.47;;;-140.56;55.04
10482;BME280;5288;42.334;23.876;2023-07-30T06:11:19;55861.72;;;-140.56;55.84
10482;BME280;5288;42.334;23.876;2023-07-30T06:13:46;55855.78;;;-140.56;54.98
10482;BME280;5288;42.334;23.876;2023-07-30T06:16:13;55838.00;;;-140.56;54.48
10482;BME280;5288;42.334;23.876;2023-07-30T06:18:40;55802.44;;;-140.56;52.87
10482;BME280;5288;42.334;23.876;2023-07-30T06:21:07;55810.34;;;-140.56;50.91
10482;BME280;5288;42.334;23.876;2023-07-30T06:23:35;55830.09;;;-140.56;52.04
10482;BME280;5288;42.334;23.876;2023-07-30T06:26:02;55816.25;;;-140.56;50.04
10482;BME280;5288;42.334;23.876;2023-07-30T06:28:29;55828.13;;;-140.56;50.87
10482;BME280;5288;42.334;23.876;2023-07-30T06:30:59;55796.50;;;-140.56;50.96
10482;BME280;5288;42.334;23.876;2023-07-30T06:33:26;55820.22;;;-140.56;49.97
10482;BME280;5288;42.334;23.876;2023-07-30T06:35:53;55782.66;;;-140.56;49.33
10482;BME280;5288;42.334;23.876;2023-07-30T06:38:21;55796.50;;;-140.56;47.44
10482;BME280;5288;42.334;23.876;2023-07-30T06:40:50;55780.69;;;-140.56;46.08
10482;BME280;5288;42.334;23.876;2023-07-30T06:43:17;55798.47;;;-140.56;44.91
10482;BME280;5288;42.334;23.876;2023-07-30T06:45:44;55814.28;;;-140.56;44.77
10482;BME280;5288;42.334;23.876;2023-07-30T06:48:10;55792.56;;;-140.56;45.52
10482;BME280;5288;42.334;23.876;2023-07-30T06:50:37;55768.84;;;-140.56;44.72
10482;BME280;5288;42.334;23.876;2023-07-30T06:53:04;55792.56;;;-140.56;45.33
10482;BME280;5288;42.334;23.876;2023-07-30T06:55:31;55788.59;;;-140.56;45.88
10482;BME280;5288;42.334;23.876;2023-07-30T06:58:00;55776.75;;;-140.56;45.39
10482;BME280;5288;42.334;23.876;2023-07-30T07:00:27;55770.81;;;-140.56;44.19
10482;BME280;5288;42.334;23.876;2023-07-30T07:02:54;55764.88;;;-140.56;43.97
10482;BME280;5288;42.334;23.876;2023-07-30T07:05:21;55737.22;;;-140.56;44.30
10482;BME280;5288;42.334;23.876;2023-07-30T07:07:48;55753.03;;;-140.56;43.52
10482;BME280;5288;42.334;23.876;2023-07-30T07:10:15;55743.16;;;-140.56;43.10
10482;BME280;5288;42.334;23.876;2023-07-30T07:12:42;55749.06;;;-140.56;43.15
10482;BME280;5288;42.334;23.876;2023-07-30T07:15:11;55747.09;;;-140.56;43.05
10482;BME280;5288;42.334;23.876;2023-07-30T07:17:37;55745.13;;;-140.56;42.08
10482;BME280;5288;42.334;23.876;2023-07-30T07:20:06;55737.22;;;-140.56;42.61
10482;BME280;5288;42.334;23.876;2023-07-30T07:22:33;55743.16;;;-140.56;42.02
10482;BME280;5288;42.334;23.876;2023-07-30T07:25:00;55717.47;;;-140.56;42.87
10482;BME280;5288;42.334;23.876;2023-07-30T07:27:27;55699.69;;;-140.56;42.14
10482;BME280;5288;42.334;23.876;2023-07-30T07:29:54;55691.78;;;-140.56;41.58
10482;BME280;5288;42.334;23.876;2023-07-30T07:32:23;55727.34;;;-140.56;40.68
10482;BME280;5288;42.334;23.876;2023-07-30T07:34:50;55717.47;;;-140.56;40.69
10482;BME280;5288;42.334;23.876;2023-07-30T07:37:17;55733.28;;;-140.56;39.89
10482;BME280;5288;42.334;23.876;2023-07-30T07:39:44;55681.91;;;-140.56;40.24
10482;BME280;5288;42.334;23.876;2023-07-30T07:42:12;55687.81;;;-140.56;40.20
10482;BME280;5288;42.334;23.876;2023-07-30T07:44:38;55707.59;;;-140.56;39.50
10482;BME280;5288;42.334;23.876;2023-07-30T07:47:06;55711.53;;;-140.56;38.50
10482;BME280;5288;42.334;23.876;2023-07-30T07:49:34;55701.66;;;-140.56;39.36
10482;BME280;5288;42.334;23.876;2023-07-30T07:52:01;55715.50;;;-140.56;38.12
10482;BME280;5288;42.334;23.876;2023-07-30T07:54:28;55670.03;;;-140.56;39.21
10482;BME280;5288;42.334;23.876;2023-07-30T07:56:55;55685.84;;;-140.56;38.27
10482;BME280;5288;42.334;23.876;2023-07-30T07:59:22;55675.97;;;-140.56;38.23
10482;BME280;5288;42.334;23.876;2023-07-30T08:01:49;55646.31;;;-140.56;37.21
10482;BME280;5288;42.334;23.876;2023-07-30T08:04:15;55662.13;;;-140.56;37.37
10482;BME280;5288;42.334;23.876;2023-07-30T08:06:44;55652.25;;;-140.56;37.27
10482;BME280;5288;42.334;23.876;2023-07-30T08:09:11;55634.47;;;-140.56;37.43
10482;BME280;5288;42.334;23.876;2023-07-30T08:11:38;55656.22;;;-140.56;36.57
10482;BME280;5288;42.334;23.876;2023-07-30T08:14:05;55656.22;;;-140.56;37.53
10482;BME280;5288;42.334;23.876;2023-07-30T08:16:32;55638.41;;;-140.56;36.94
10482;BME280;5288;42.334;23.876;2023-07-30T08:18:59;55687.81;;;-140.56;37.01
10482;BME280;5288;42.334;23.876;2023-07-30T08:21:26;55660.16;;;-140.56;37.23
10482;BME280;5288;42.334;23.876;2023-07-30T08:23:54;55660.16;;;-140.56;37.23
10482;BME280;5288;42.334;23.876;2023-07-30T08:26:21;55620.63;;;-140.56;36.59
10482;BME280;5288;42.334;23.876;2023-07-30T08:28:48;55636.44;;;-140.56;36.69
10482;BME280;5288;42.334;23.876;2023-07-30T08:31:16;55596.94;;;-140.56;36.49
10482;BME280;5288;42.334;23.876;2023-07-30T08:33:42;55666.09;;;-140.56;36.47
10482;BME280;5288;42.334;23.876;2023-07-30T08:36:09;55642.38;;;-140.56;36.52
10482;BME280;5288;42.334;23.876;2023-07-30T08:38:36;55654.22;;;-140.56;35.81
10482;BME280;5288;42.334;23.876;2023-07-30T08:41:05;55616.69;;;-140.56;35.77
10482;BME280;5288;42.334;23.876;2023-07-30T08:43:32;55591.00;;;-140.56;36.04
10482;BME280;5288;42.334;23.876;2023-07-30T08:46:00;55652.25;;;-140.56;36.23
10482;BME280;5288;42.334;23.876;2023-07-30T08:48:27;55606.81;;;-140.56;35.63
10482;BME280;5288;42.334;23.876;2023-07-30T08:50:57;55608.78;;;-140.56;35.07
10482;BME280;5288;42.334;23.876;2023-07-30T08:53:24;55612.75;;;-140.56;35.36
10482;BME280;5288;42.334;23.876;2023-07-30T08:55:52;55573.22;;;-140.56;34.95
10482;BME280;5288;42.334;23.876;2023-07-30T08:58:22;55541.59;;;-140.56;34.53
10482;BME280;5288;42.334;23.876;2023-07-30T09:00:51;55592.97;;;-140.56;34.52
10482;BME280;5288;42.334;23.876;2023-07-30T09:03:22;55591.00;;;-140.56;34.21
10482;BME280;5288;42.334;23.876;2023-07-30T09:05:49;55573.22;;;-140.56;34.38
10482;BME280;5288;42.334;23.876;2023-07-30T09:08:17;55589.03;;;-140.56;34.25
10482;BME280;5288;42.334;23.876;2023-07-30T09:10:44;55567.28;;;-140.56;34.83
10482;BME280;5288;42.334;23.876;2023-07-30T09:13:11;55543.56;;;-140.56;35.05
10482;BME280;5288;42.334;23.876;2023-07-30T09:15:48;55563.34;;;-140.56;33.13
10482;BME280;5288;42.334;23.876;2023-07-30T09:18:17;55541.59;;;-140.56;34.88
10482;BME280;5288;42.334;23.876;2023-07-30T09:20:44;55547.53;;;-140.56;32.52
10482;BME280;5288;42.334;23.876;2023-07-30T09:23:11;55547.53;;;-140.56;32.26
10482;BME280;5288;42.334;23.876;2023-07-30T09:25:38;55537.66;;;-140.56;32.00
10482;BME280;5288;42.334;23.876;2023-07-30T09:28:06;55547.53;;;-140.56;31.44
10482;BME280;5288;42.334;23.876;2023-07-30T09:30:33;55541.59;;;-140.56;31.62
10482;BME280;5288;42.334;23.876;2023-07-30T09:33:01;55551.47;;;-140.56;30.70
10482;BME280;5288;42.334;23.876;2023-07-30T09:35:28;55563.34;;;-140.56;30.55
10482;BME280;5288;42.334;23.876;2023-07-30T09:37:59;55529.75;;;-140.56;31.43
10482;BME280;5288;42.334;23.876;2023-07-30T09:40:31;55543.56;;;-140.56;31.97
10482;BME280;5288;42.334;23.876;2023-07-30T09:42:58;55539.63;;;-140.56;30.52
10482;BME280;5288;42.334;23.876;2023-07-30T09:45:26;55543.56;;;-140.56;30.02
10482;BME280;5288;42.334;23.876;2023-07-30T09:47:54;55517.91;;;-140.56;30.46
10482;BME280;5288;42.334;23.876;2023-07-30T09:50:24;55545.56;;;-140.56;30.57
10482;BME280;5288;42.334;23.876;2023-07-30T09:52:51;55517.91;;;-140.56;31.99
10482;BME280;5288;42.334;23.876;2023-07-30T09:55:17;55519.88;;;-140.56;30.57
10482;BME280;5288;42.334;23.876;2023-07-30T09:57:45;55486.28;;;-140.56;30.97
10482;BME280;5288;42.334;23.876;2023-07-30T10:00:12;55523.81;;;-140.56;31.04
10482;BME280;5288;42.334;23.876;2023-07-30T10:02:41;55508.00;;;-140.56;29.88
10482;BME280;5288;42.334;23.876;2023-07-30T10:05:15;55510.00;;;-140.56;29.81
10482;BME280;5288;42.334;23.876;2023-07-30T10:07:48;55529.75;;;-140.56;31.20
10482;BME280;5288;42.334;23.876;2023-07-30T10:10:18;55531.72;;;-140.56;29.85
10482;BME280;5288;42.334;23.876;2023-07-30T10:12:45;55502.09;;;-140.56;30.62
10482;BME280;5288;42.334;23.876;2023-07-30T10:15:13;55508.00;;;-140.56;29.34
10482;BME280;5288;42.334;23.876;2023-07-30T10:17:40;55488.25;;;-140.56;29.69
10482;BME280;5288;42.334;23.876;2023-07-30T10:20:23;55496.16;;;-140.56;29.58
10482;BME280;5288;42.334;23.876;2023-07-30T10:22:53;55492.22;;;-140.56;29.60
10482;BME280;5288;42.334;23.876;2023-07-30T10:25:21;55444.78;;;-140.56;28.84
10482;BME280;5288;42.334;23.876;2023-07-30T10:27:50;55458.63;;;-140.56;29.61
10482;BME280;5288;42.334;23.876;2023-07-30T10:30:18;55458.63;;;-140.56;29.32
10482;BME280;5288;42.334;23.876;2023-07-30T10:32:59;55438.84;;;-140.56;28.79
10482;BME280;5288;42.334;23.876;2023-07-30T10:35:39;55456.63;;;-140.56;29.50
10482;BME280;5288;42.334;23.876;2023-07-30T10:38:19;55450.72;;;-140.56;29.54
10482;BME280;5288;42.334;23.876;2023-07-30T10:41:00;55472.44;;;-140.56;29.14
10482;BME280;5288;42.334;23.876;2023-07-30T10:43:28;55450.72;;;-140.56;30.07
10482;BME280;5288;42.334;23.876;2023-07-30T10:45:56;55432.94;;;-140.56;29.39
10482;BME280;5288;42.334;23.876;2023-07-30T10:48:30;55456.63;;;-140.56;29.65
10482;BME280;5288;42.334;23.876;2023-07-30T10:50:58;55474.41;;;-140.56;30.21
10482;BME280;5288;42.334;23.876;2023-07-30T10:53:27;55446.75;;;-140.56;28.74
10482;BME280;5288;42.334;23.876;2023-07-30T10:55:54;55440.84;;;-140.56;29.56
10482;BME280;5288;42.334;23.876;2023-07-30T10:58:25;55407.25;;;-140.56;29.25
10482;BME280;5288;42.334;23.876;2023-07-30T11:00:52;55432.94;;;-140.56;28.01
10482;BME280;5288;42.334;23.876;2023-07-30T11:03:19;55440.84;;;-140.56;30.30
10482;BME280;5288;42.334;23.876;2023-07-30T11:05:47;55456.63;;;-140.56;28.90
10482;BME280;5288;42.334;23.876;2023-07-30T11:08:14;55458.63;;;-140.56;29.97
10482;BME280;5288;42.334;23.876;2023-07-30T11:10:44;55482.31;;;-140.56;27.96
10482;BME280;5288;42.334;23.876;2023-07-30T11:13:12;55421.06;;;-140.56;28.06
10482;BME280;5288;42.334;23.876;2023-07-30T11:15:42;55411.19;;;-140.56;26.60
10482;BME280;5288;42.334;23.876;2023-07-30T11:18:10;55417.13;;;-140.56;26.49
10482;BME280;5288;42.334;23.876;2023-07-30T11:20:38;55448.72;;;-140.56;27.28
10482;BME280;5288;42.334;23.876;2023-07-30T11:23:17;55425.03;;;-140.56;28.11
10482;BME280;5288;42.334;23.876;2023-07-30T11:25:47;55434.91;;;-140.56;28.51
10482;BME280;5288;42.334;23.876;2023-07-30T11:28:27;55452.69;;;-140.56;27.32
10482;BME280;5288;42.334;23.876;2023-07-30T11:30:56;55460.59;;;-140.56;27.38
10482;BME280;5288;42.334;23.876;2023-07-30T11:33:24;55456.63;;;-140.56;26.72
10482;BME280;5288;42.334;23.876;2023-07-30T11:35:51;55428.97;;;-140.56;27.75
10482;BME280;5288;42.334;23.876;2023-07-30T11:38:18;55413.16;;;-140.56;27.66
10482;BME280;5288;42.334;23.876;2023-07-30T11:40:47;55448.72;;;-140.56;26.92
10482;BME280;5288;42.334;23.876;2023-07-30T11:43:15;55440.84;;;-140.56;27.78
10482;BME280;5288;42.334;23.876;2023-07-30T11:45:41;55417.13;;;-140.56;26.58
10482;BME280;5288;42.334;23.876;2023-07-30T11:48:10;55383.53;;;-140.56;26.14
10482;BME280;5288;42.334;23.876;2023-07-30T11:50:44;55389.47;;;-140.56;25.95
10482;BME280;5288;42.334;23.876;2023-07-30T11:53:12;55401.31;;;-140.56;25.91
10482;BME280;5288;42.334;23.876;2023-07-30T11:55:40;55371.69;;;-140.56;25.86
10482;BME280;5288;42.334;23.876;2023-07-30T11:58:10;55369.69;;;-140.56;27.95
10482;BME280;5288;42.334;23.876;2023-07-30T12:00:37;55357.84;;;-140.56;27.42
10482;BME280;5288;42.334;23.876;2023-07-30T12:03:06;55369.69;;;-140.56;25.79
10482;BME280;5288;42.334;23.876;2023-07-30T12:05:34;55346.00;;;-140.56;25.25
10482;BME280;5288;42.334;23.876;2023-07-30T12:08:02;55363.78;;;-140.56;26.48
10482;BME280;5288;42.334;23.876;2023-07-30T12:10:41;55395.38;;;-140.56;26.53
10482;BME280;5288;42.334;23.876;2023-07-30T12:13:15;55407.25;;;-140.56;25.68
10482;BME280;5288;42.334;23.876;2023-07-30T12:15:44;55389.47;;;-140.56;26.85
10482;BME280;5288;42.334;23.876;2023-07-30T12:18:11;55359.81;;;-140.56;26.24
10482;BME280;5288;42.334;23.876;2023-07-30T12:20:38;55387.47;;;-140.56;26.05
10482;BME280;5288;42.334;23.876;2023-07-30T12:23:05;55377.59;;;-140.56;26.13
10482;BME280;5288;42.334;23.876;2023-07-30T12:25:32;55369.69;;;-140.56;26.26
10482;BME280;5288;42.334;23.876;2023-07-30T12:27:59;55393.41;;;-140.56;26.10
10482;BME280;5288;42.334;23.876;2023-07-30T12:30:27;55401.31;;;-140.56;26.47
10482;BME280;5288;42.334;23.876;2023-07-30T12:32:54;55377.59;;;-140.56;27.62
10482;BME280;5288;42.334;23.876;2023-07-30T12:35:21;55425.03;;;-140.56;26.42
10482;BME280;5288;42.334;23.876;2023-07-30T12:37:48;55379.59;;;-140.56;26.87
10482;BME280;5288;42.334;23.876;2023-07-30T12:40:15;55385.50;;;-140.56;26.60
10482;BME280;5288;42.334;23.876;2023-07-30T12:42:43;55389.47;;;-140.56;25.90
10482;BME280;5288;42.334;23.876;2023-07-30T12:45:10;55421.06;;;-140.56;26.60
10482;BME280;5288;42.334;23.876;2023-07-30T12:47:38;55448.72;;;-140.56;27.54
10482;BME280;5288;42.334;23.876;2023-07-30T12:50:06;55430.94;;;-140.56;26.76
10482;BME280;5288;42.334;23.876;2023-07-30T12:52:34;55474.41;;;-140.56;27.13
10482;BME280;5288;42.334;23.876;2023-07-30T12:55:01;55419.09;;;-140.56;28.35
10482;BME280;5288;42.334;23.876;2023-07-30T12:57:30;55434.91;;;-140.56;26.97
10482;BME280;5288;42.334;23.876;2023-07-30T12:59:56;55434.91;;;-140.56;27.01
10482;BME280;5288;42.334;23.876;2023-07-30T13:02:24;55427.00;;;-140.56;27.22
10482;BME280;5288;42.334;23.876;2023-07-30T13:04:52;55421.06;;;-140.56;27.08
10482;BME280;5288;42.334;23.876;2023-07-30T13:07:19;55428.97;;;-140.56;26.37
10482;BME280;5288;42.334;23.876;2023-07-30T13:09:46;55450.72;;;-140.56;27.74
10482;BME280;5288;42.334;23.876;2023-07-30T13:12:13;55434.91;;;-140.56;28.34
10482;BME280;5288;42.334;23.876;2023-07-30T13:14:40;55427.00;;;-140.56;27.17
10482;BME280;5288;42.334;23.876;2023-07-30T13:17:07;55421.06;;;-140.56;26.51
10482;BME280;5288;42.334;23.876;2023-07-30T13:19:34;55391.44;;;-140.56;26.94
10482;BME280;5288;42.334;23.876;2023-07-30T13:22:02;55401.31;;;-140.56;26.92
10482;BME280;5288;42.334;23.876;2023-07-30T13:24:29;55377.59;;;-140.56;27.04
10482;BME280;5288;42.334;23.876;2023-07-30T13:26:57;55359.81;;;-140.56;26.94
10482;BME280;5288;42.334;23.876;2023-07-30T13:29:24;55377.59;;;-140.56;27.08